sensor_id;sensor_type;location;lat;lon;timestamp;P1;durP1;ratioP1;P2;durP2;ratioP2
71496;SDS011;59317;53.218;5.730;2022-10-22T00:01:58;18.25;;;8.07;;
71496;SDS011;59317;53.218;5.730;2022-10-22T00:04:24;18.17;;;7.78;;
71496;SDS011;59317;53.218;5.730;2022-10-22T00:06:50;15.20;;;8.13;;
71496;SDS011;59317;53.218;5.730;2022-10-22T00:09:16;15.75;;;8.45;;
71496;SDS011;59317;53.218;5.730;2022-10-22T00:11:42;15.60;;;7.90;;
71496;SDS011;59317;53.218;5.730;2022-10-22T00:14:08;16.10;;;7.85;;
71496;SDS011;59317;53.218;5.730;2022-10-22T00:16:34;15.63;;;7.70;;
71496;SDS011;59317;53.218;5.730;2022-10-22T00:19:00;15.43;;;7.97;;
71496;SDS011;59317;53.218;5.730;2022-10-22T00:21:26;16.17;;;8.68;;
71496;SDS011;59317;53.218;5.730;2022-10-22T00:23:53;17.47;;;8.00;;
71496;SDS011;59317;53.218;5.730;2022-10-22T00:26:19;17.08;;;8.10;;
71496;SDS011;59317;53.218;5.730;2022-10-22T00:28:46;18.63;;;9.00;;
71496;SDS011;59317;53.218;5.730;2022-10-22T00:31:12;17.37;;;8.33;;
71496;SDS011;59317;53.218;5.730;2022-10-22T00:33:39;18.63;;;9.40;;
71496;SDS011;59317;53.218;5.730;2022-10-22T00:36:05;18.02;;;8.93;;
71496;SDS011;59317;53.218;5.730;2022-10-22T00:38:32;17.13;;;8.65;;
71496;SDS011;59317;53.218;5.730;2022-10-22T00:40:58;18.13;;;8.98;;
71496;SDS011;59317;53.218;5.730;2022-10-22T00:43:24;15.65;;;8.55;;
71496;SDS011;59317;53.218;5.730;2022-10-22T00:45:51;17.08;;;8.40;;
71496;SDS011;59317;53.218;5.730;2022-10-22T00:48:18;19.38;;;9.05;;
71496;SDS011;59317;53.218;5.730;2022-10-22T00:53:20;16.30;;;8.45;;
71496;SDS011;59317;53.218;5.730;2022-10-22T00:55:47;16.37;;;8.70;;
71496;SDS011;59317;53.218;5.730;2022-10-22T00:58:14;15.63;;;8.25;;
71496;SDS011;59317;53.218;5.730;2022-10-22T01:00:40;16.67;;;8.38;;
71496;SDS011;59317;53.218;5.730;2022-10-22T01:03:06;17.05;;;7.95;;
71496;SDS011;59317;53.218;5.730;2022-10-22T01:05:37;17.88;;;8.95;;
71496;SDS011;59317;53.218;5.730;2022-10-22T01:08:04;17.25;;;9.35;;
71496;SDS011;59317;53.218;5.730;2022-10-22T01:10:41;17.33;;;8.82;;
71496;SDS011;59317;53.218;5.730;2022-10-22T01:16:09;19.20;;;9.57;;
71496;SDS011;59317;53.218;5.730;2022-10-22T01:21:11;17.30;;;9.10;;
71496;SDS011;59317;53.218;5.730;2022-10-22T01:26:17;18.48;;;8.82;;
71496;SDS011;59317;53.218;5.730;2022-10-22T01:29:08;20.45;;;10.05;;
71496;SDS011;59317;53.218;5.730;2022-10-22T01:31:38;17.02;;;9.00;;
71496;SDS011;59317;53.218;5.730;2022-10-22T01:34:06;17.57;;;8.83;;
71496;SDS011;59317;53.218;5.730;2022-10-22T01:36:32;16.90;;;8.18;;
71496;SDS011;59317;53.218;5.730;2022-10-22T01:39:00;17.08;;;8.75;;
71496;SDS011;59317;53.218;5.730;2022-10-22T01:41:29;20.60;;;9.80;;
71496;SDS011;59317;53.218;5.730;2022-10-22T01:43:55;16.38;;;8.05;;
71496;SDS011;59317;53.218;5.730;2022-10-22T01:46:22;17.48;;;8.15;;
71496;SDS011;59317;53.218;5.730;2022-10-22T01:49:07;14.60;;;7.90;;
71496;SDS011;59317;53.218;5.730;2022-10-22T01:59:33;19.33;;;8.65;;
71496;SDS011;59317;53.218;5.730;2022-10-22T02:07:22;16.20;;;7.68;;
71496;SDS011;59317;53.218;5.730;2022-10-22T02:09:51;17.10;;;7.78;;
71496;SDS011;59317;53.218;5.730;2022-10-22T02:12:17;15.23;;;7.38;;
71496;SDS011;59317;53.218;5.730;2022-10-22T02:14:45;17.07;;;7.83;;
71496;SDS011;59317;53.218;5.730;2022-10-22T02:17:13;19.60;;;7.10;;
71496;SDS011;59317;53.218;5.730;2022-10-22T02:19:43;15.85;;;7.40;;
71496;SDS011;59317;53.218;5.730;2022-10-22T02:22:11;14.77;;;7.03;;
71496;SDS011;59317;53.218;5.730;2022-10-22T02:24:37;16.25;;;7.28;;
71496;SDS011;59317;53.218;5.730;2022-10-22T02:27:08;15.70;;;6.82;;
71496;SDS011;59317;53.218;5.730;2022-10-22T02:29:37;16.27;;;7.47;;
71496;SDS011;59317;53.218;5.730;2022-10-22T02:32:04;14.67;;;7.60;;
71496;SDS011;59317;53.218;5.730;2022-10-22T02:34:31;16.05;;;7.53;;
71496;SDS011;59317;53.218;5.730;2022-10-22T02:36:58;14.15;;;7.63;;
71496;SDS011;59317;53.218;5.730;2022-10-22T02:39:25;13.52;;;7.55;;
71496;SDS011;59317;53.218;5.730;2022-10-22T02:41:52;17.25;;;7.78;;
71496;SDS011;59317;53.218;5.730;2022-10-22T02:44:20;14.70;;;7.20;;
71496;SDS011;59317;53.218;5.730;2022-10-22T02:46:46;15.18;;;7.20;;
71496;SDS011;59317;53.218;5.730;2022-10-22T02:49:12;17.75;;;9.10;;
71496;SDS011;59317;53.218;5.730;2022-10-22T02:51:38;14.38;;;6.43;;
71496;SDS011;59317;53.218;5.730;2022-10-22T02:54:04;15.10;;;6.65;;
71496;SDS011;59317;53.218;5.730;2022-10-22T02:56:30;13.95;;;7.03;;
71496;SDS011;59317;53.218;5.730;2022-10-22T02:58:56;15.45;;;7.15;;
71496;SDS011;59317;53.218;5.730;2022-10-22T03:01:22;13.13;;;6.45;;
71496;SDS011;59317;53.218;5.730;2022-10-22T03:03:48;16.40;;;6.57;;
71496;SDS011;59317;53.218;5.730;2022-10-22T03:06:14;14.00;;;6.90;;
71496;SDS011;59317;53.218;5.730;2022-10-22T03:08:40;13.32;;;6.53;;
71496;SDS011;59317;53.218;5.730;2022-10-22T03:11:06;15.23;;;7.15;;
71496;SDS011;59317;53.218;5.730;2022-10-22T03:13:32;17.60;;;7.00;;
71496;SDS011;59317;53.218;5.730;2022-10-22T03:15:58;15.57;;;7.03;;
71496;SDS011;59317;53.218;5.730;2022-10-22T03:18:24;14.47;;;6.90;;
71496;SDS011;59317;53.218;5.730;2022-10-22T03:20:52;15.57;;;6.63;;
71496;SDS011;59317;53.218;5.730;2022-10-22T03:23:23;13.80;;;6.72;;
71496;SDS011;59317;53.218;5.730;2022-10-22T03:25:50;16.23;;;6.90;;
71496;SDS011;59317;53.218;5.730;2022-10-22T03:28:16;12.52;;;6.05;;
71496;SDS011;59317;53.218;5.730;2022-10-22T03:30:43;13.15;;;6.10;;
71496;SDS011;59317;53.218;5.730;2022-10-22T03:33:09;14.27;;;6.75;;
71496;SDS011;59317;53.218;5.730;2022-10-22T03:35:36;12.98;;;6.47;;
71496;SDS011;59317;53.218;5.730;2022-10-22T03:38:03;14.13;;;6.80;;
71496;SDS011;59317;53.218;5.730;2022-10-22T03:40:28;14.30;;;5.72;;
71496;SDS011;59317;53.218;5.730;2022-10-22T03:42:54;14.05;;;6.68;;
71496;SDS011;59317;53.218;5.730;2022-10-22T03:45:20;13.32;;;6.32;;
71496;SDS011;59317;53.218;5.730;2022-10-22T03:47:46;15.85;;;6.30;;
71496;SDS011;59317;53.218;5.730;2022-10-22T03:50:12;14.60;;;7.28;;
71496;SDS011;59317;53.218;5.730;2022-10-22T03:52:38;14.68;;;6.30;;
71496;SDS011;59317;53.218;5.730;2022-10-22T03:55:05;16.27;;;6.72;;
71496;SDS011;59317;53.218;5.730;2022-10-22T03:57:31;15.90;;;7.00;;
71496;SDS011;59317;53.218;5.730;2022-10-22T03:59:57;15.10;;;6.40;;
71496;SDS011;59317;53.218;5.730;2022-10-22T04:02:23;15.90;;;6.30;;
71496;SDS011;59317;53.218;5.730;2022-10-22T04:04:49;14.40;;;6.53;;
71496;SDS011;59317;53.218;5.730;2022-10-22T04:07:15;14.40;;;6.27;;
71496;SDS011;59317;53.218;5.730;2022-10-22T04:09:41;14.93;;;6.83;;
71496;SDS011;59317;53.218;5.730;2022-10-22T04:12:07;14.88;;;6.25;;
71496;SDS011;59317;53.218;5.730;2022-10-22T04:14:34;15.27;;;6.32;;
71496;SDS011;59317;53.218;5.730;2022-10-22T04:17:00;13.63;;;6.57;;
71496;SDS011;59317;53.218;5.730;2022-10-22T04:19:26;14.50;;;5.63;;
71496;SDS011;59317;53.218;5.730;2022-10-22T04:21:52;15.70;;;5.47;;
71496;SDS011;59317;53.218;5.730;2022-10-22T04:24:18;12.52;;;5.90;;
71496;SDS011;59317;53.218;5.730;2022-10-22T04:26:44;13.17;;;5.47;;
71496;SDS011;59317;53.218;5.730;2022-10-22T04:29:10;12.50;;;5.47;;
71496;SDS011;59317;53.218;5.730;2022-10-22T04:31:36;11.82;;;5.55;;
71496;SDS011;59317;53.218;5.730;2022-10-22T04:34:02;13.35;;;5.90;;
71496;SDS011;59317;53.218;5.730;2022-10-22T04:36:28;14.02;;;5.55;;
71496;SDS011;59317;53.218;5.730;2022-10-22T04:38:55;13.10;;;4.95;;
71496;SDS011;59317;53.218;5.730;2022-10-22T04:41:23;12.73;;;4.80;;
71496;SDS011;59317;53.218;5.730;2022-10-22T04:43:49;13.48;;;5.40;;
71496;SDS011;59317;53.218;5.730;2022-10-22T04:46:16;13.15;;;5.22;;
71496;SDS011;59317;53.218;5.730;2022-10-22T04:48:42;15.50;;;5.50;;
71496;SDS011;59317;53.218;5.730;2022-10-22T04:51:13;12.18;;;4.95;;
71496;SDS011;59317;53.218;5.730;2022-10-22T04:53:40;11.63;;;4.68;;
71496;SDS011;59317;53.218;5.730;2022-10-22T04:56:07;12.50;;;5.07;;
71496;SDS011;59317;53.218;5.730;2022-10-22T04:58:33;18.58;;;5.40;;
71496;SDS011;59317;53.218;5.730;2022-10-22T05:00:59;12.23;;;4.95;;
71496;SDS011;59317;53.218;5.730;2022-10-22T05:03:25;14.75;;;5.25;;
71496;SDS011;59317;53.218;5.730;2022-10-22T05:05:51;13.25;;;4.60;;
71496;SDS011;59317;53.218;5.730;2022-10-22T05:08:16;12.50;;;5.03;;
71496;SDS011;59317;53.218;5.730;2022-10-22T05:10:42;10.65;;;4.38;;
71496;SDS011;59317;53.218;5.730;2022-10-22T05:13:08;10.40;;;4.45;;
71496;SDS011;59317;53.218;5.730;2022-10-22T05:15:34;12.15;;;5.00;;
71496;SDS011;59317;53.218;5.730;2022-10-22T05:18:00;14.85;;;4.97;;
71496;SDS011;59317;53.218;5.730;2022-10-22T05:20:26;11.15;;;4.55;;
71496;SDS011;59317;53.218;5.730;2022-10-22T05:22:52;15.20;;;5.13;;
71496;SDS011;59317;53.218;5.730;2022-10-22T05:25:18;10.67;;;4.57;;
71496;SDS011;59317;53.218;5.730;2022-10-22T05:27:47;11.35;;;4.72;;
71496;SDS011;59317;53.218;5.730;2022-10-22T05:30:13;14.60;;;4.70;;
71496;SDS011;59317;53.218;5.730;2022-10-22T05:32:39;13.13;;;5.10;;
71496;SDS011;59317;53.218;5.730;2022-10-22T05:35:05;13.10;;;5.73;;
71496;SDS011;59317;53.218;5.730;2022-10-22T05:37:31;12.00;;;4.73;;
71496;SDS011;59317;53.218;5.730;2022-10-22T05:39:57;13.00;;;5.40;;
71496;SDS011;59317;53.218;5.730;2022-10-22T05:42:23;13.10;;;5.27;;
71496;SDS011;59317;53.218;5.730;2022-10-22T05:44:49;11.90;;;4.63;;
71496;SDS011;59317;53.218;5.730;2022-10-22T05:47:15;13.20;;;5.10;;
71496;SDS011;59317;53.218;5.730;2022-10-22T05:49:41;12.73;;;5.07;;
71496;SDS011;59317;53.218;5.730;2022-10-22T05:52:07;14.40;;;4.85;;
71496;SDS011;59317;53.218;5.730;2022-10-22T05:54:33;12.25;;;5.10;;
71496;SDS011;59317;53.218;5.730;2022-10-22T05:56:59;12.93;;;4.38;;
71496;SDS011;59317;53.218;5.730;2022-10-22T05:59:25;13.15;;;5.07;;
71496;SDS011;59317;53.218;5.730;2022-10-22T06:01:51;13.55;;;5.40;;
71496;SDS011;59317;53.218;5.730;2022-10-22T06:04:17;11.25;;;5.00;;
71496;SDS011;59317;53.218;5.730;2022-10-22T06:06:47;10.23;;;4.30;;
71496;SDS011;59317;53.218;5.730;2022-10-22T06:09:17;12.05;;;4.78;;
71496;SDS011;59317;53.218;5.730;2022-10-22T06:11:45;15.30;;;5.28;;
71496;SDS011;59317;53.218;5.730;2022-10-22T06:14:12;15.32;;;4.82;;
71496;SDS011;59317;53.218;5.730;2022-10-22T06:16:38;11.50;;;4.67;;
71496;SDS011;59317;53.218;5.730;2022-10-22T06:19:04;11.82;;;4.53;;
71496;SDS011;59317;53.218;5.730;2022-10-22T06:21:31;10.35;;;4.70;;
71496;SDS011;59317;53.218;5.730;2022-10-22T06:23:57;13.27;;;4.57;;
71496;SDS011;59317;53.218;5.730;2022-10-22T06:26:24;13.88;;;5.15;;
71496;SDS011;59317;53.218;5.730;2022-10-22T06:28:50;12.85;;;4.47;;
71496;SDS011;59317;53.218;5.730;2022-10-22T06:31:16;12.83;;;4.70;;
71496;SDS011;59317;53.218;5.730;2022-10-22T06:33:42;15.33;;;5.00;;
71496;SDS011;59317;53.218;5.730;2022-10-22T06:36:13;15.60;;;4.80;;
71496;SDS011;59317;53.218;5.730;2022-10-22T06:38:40;12.48;;;5.00;;
71496;SDS011;59317;53.218;5.730;2022-10-22T06:41:12;12.55;;;4.65;;
71496;SDS011;59317;53.218;5.730;2022-10-22T06:43:39;14.63;;;5.13;;
71496;SDS011;59317;53.218;5.730;2022-10-22T06:46:06;14.93;;;4.53;;
71496;SDS011;59317;53.218;5.730;2022-10-22T06:48:34;12.03;;;5.07;;
71496;SDS011;59317;53.218;5.730;2022-10-22T06:51:02;16.17;;;4.93;;
71496;SDS011;59317;53.218;5.730;2022-10-22T06:53:29;15.27;;;5.30;;
71496;SDS011;59317;53.218;5.730;2022-10-22T06:55:55;15.70;;;4.85;;
71496;SDS011;59317;53.218;5.730;2022-10-22T06:58:21;14.48;;;4.63;;
71496;SDS011;59317;53.218;5.730;2022-10-22T07:00:47;12.60;;;4.80;;
71496;SDS011;59317;53.218;5.730;2022-10-22T07:03:13;11.65;;;4.55;;
71496;SDS011;59317;53.218;5.730;2022-10-22T07:05:39;15.27;;;4.85;;
71496;SDS011;59317;53.218;5.730;2022-10-22T07:08:05;14.45;;;4.88;;
71496;SDS011;59317;53.218;5.730;2022-10-22T07:10:31;14.10;;;4.63;;
71496;SDS011;59317;53.218;5.730;2022-10-22T07:12:57;11.67;;;4.50;;
71496;SDS011;59317;53.218;5.730;2022-10-22T07:15:24;12.37;;;4.73;;
71496;SDS011;59317;53.218;5.730;2022-10-22T07:17:50;10.40;;;4.10;;
71496;SDS011;59317;53.218;5.730;2022-10-22T07:20:16;13.33;;;4.70;;
71496;SDS011;59317;53.218;5.730;2022-10-22T07:22:43;12.18;;;4.57;;
71496;SDS011;59317;53.218;5.730;2022-10-22T07:25:09;14.37;;;4.90;;
71496;SDS011;59317;53.218;5.730;2022-10-22T07:27:35;13.77;;;4.10;;
71496;SDS011;59317;53.218;5.730;2022-10-22T07:30:01;11.80;;;4.37;;
71496;SDS011;59317;53.218;5.730;2022-10-22T07:32:27;13.53;;;4.30;;
71496;SDS011;59317;53.218;5.730;2022-10-22T07:34:53;13.40;;;4.40;;
71496;SDS011;59317;53.218;5.730;2022-10-22T07:37:19;14.43;;;4.27;;
71496;SDS011;59317;53.218;5.730;2022-10-22T07:39:46;12.70;;;4.20;;
71496;SDS011;59317;53.218;5.730;2022-10-22T07:42:13;13.60;;;3.88;;
71496;SDS011;59317;53.218;5.730;2022-10-22T07:44:39;13.23;;;4.00;;
71496;SDS011;59317;53.218;5.730;2022-10-22T07:47:05;13.85;;;4.30;;
71496;SDS011;59317;53.218;5.730;2022-10-22T07:49:31;12.55;;;3.95;;
71496;SDS011;59317;53.218;5.730;2022-10-22T07:51:57;12.70;;;3.90;;
71496;SDS011;59317;53.218;5.730;2022-10-22T07:54:23;13.88;;;3.60;;
71496;SDS011;59317;53.218;5.730;2022-10-22T07:56:49;13.48;;;3.55;;
71496;SDS011;59317;53.218;5.730;2022-10-22T07:59:15;12.15;;;3.60;;
71496;SDS011;59317;53.218;5.730;2022-10-22T08:01:41;10.70;;;3.40;;
71496;SDS011;59317;53.218;5.730;2022-10-22T08:04:07;10.23;;;3.15;;
71496;SDS011;59317;53.218;5.730;2022-10-22T08:06:34;12.30;;;3.22;;
71496;SDS011;59317;53.218;5.730;2022-10-22T08:09:00;13.35;;;3.20;;
71496;SDS011;59317;53.218;5.730;2022-10-22T08:11:26;11.38;;;3.15;;
71496;SDS011;59317;53.218;5.730;2022-10-22T08:13:52;14.40;;;3.15;;
71496;SDS011;59317;53.218;5.730;2022-10-22T08:16:18;11.77;;;3.30;;
71496;SDS011;59317;53.218;5.730;2022-10-22T08:18:44;10.70;;;2.75;;
71496;SDS011;59317;53.218;5.730;2022-10-22T08:21:11;10.10;;;2.93;;
71496;SDS011;59317;53.218;5.730;2022-10-22T08:23:37;12.63;;;2.80;;
71496;SDS011;59317;53.218;5.730;2022-10-22T08:26:04;12.45;;;3.05;;
71496;SDS011;59317;53.218;5.730;2022-10-22T08:28:30;12.10;;;3.17;;
71496;SDS011;59317;53.218;5.730;2022-10-22T08:31:00;11.18;;;2.80;;
71496;SDS011;59317;53.218;5.730;2022-10-22T08:33:26;11.13;;;2.75;;
71496;SDS011;59317;53.218;5.730;2022-10-22T08:35:52;10.55;;;2.78;;
71496;SDS011;59317;53.218;5.730;2022-10-22T08:38:18;14.35;;;3.13;;
71496;SDS011;59317;53.218;5.730;2022-10-22T08:40:46;8.73;;;2.55;;
71496;SDS011;59317;53.218;5.730;2022-10-22T08:43:32;13.15;;;3.00;;
71496;SDS011;59317;53.218;5.730;2022-10-22T08:46:16;12.77;;;2.35;;
71496;SDS011;59317;53.218;5.730;2022-10-22T08:48:48;9.75;;;2.80;;
71496;SDS011;59317;53.218;5.730;2022-10-22T08:51:16;14.73;;;3.10;;
71496;SDS011;59317;53.218;5.730;2022-10-22T08:56:13;13.27;;;2.90;;
71496;SDS011;59317;53.218;5.730;2022-10-22T08:58:42;10.98;;;2.80;;
71496;SDS011;59317;53.218;5.730;2022-10-22T09:01:18;10.52;;;2.97;;
71496;SDS011;59317;53.218;5.730;2022-10-22T09:03:57;10.18;;;2.50;;
71496;SDS011;59317;53.218;5.730;2022-10-22T09:06:27;15.77;;;2.87;;
71496;SDS011;59317;53.218;5.730;2022-10-22T09:08:55;12.27;;;2.80;;
71496;SDS011;59317;53.218;5.730;2022-10-22T09:11:23;11.57;;;3.00;;
71496;SDS011;59317;53.218;5.730;2022-10-22T09:13:50;10.67;;;2.60;;
71496;SDS011;59317;53.218;5.730;2022-10-22T09:16:21;11.73;;;2.67;;
71496;SDS011;59317;53.218;5.730;2022-10-22T09:21:37;13.82;;;2.97;;
71496;SDS011;59317;53.218;5.730;2022-10-22T09:26:39;11.05;;;2.50;;
71496;SDS011;59317;53.218;5.730;2022-10-22T09:29:05;13.43;;;2.93;;
71496;SDS011;59317;53.218;5.730;2022-10-22T09:31:32;11.38;;;2.90;;
71496;SDS011;59317;53.218;5.730;2022-10-22T09:33:59;9.90;;;2.63;;
71496;SDS011;59317;53.218;5.730;2022-10-22T09:36:30;11.10;;;2.88;;
71496;SDS011;59317;53.218;5.730;2022-10-22T09:38:56;12.70;;;3.03;;
71496;SDS011;59317;53.218;5.730;2022-10-22T09:41:24;10.33;;;3.00;;
71496;SDS011;59317;53.218;5.730;2022-10-22T09:43:50;12.23;;;3.53;;
71496;SDS011;59317;53.218;5.730;2022-10-22T09:46:17;11.25;;;3.53;;
71496;SDS011;59317;53.218;5.730;2022-10-22T09:51:25;11.53;;;3.30;;
71496;SDS011;59317;53.218;5.730;2022-10-22T09:54:01;12.93;;;3.08;;
71496;SDS011;59317;53.218;5.730;2022-10-22T09:56:32;13.17;;;3.40;;
71496;SDS011;59317;53.218;5.730;2022-10-22T09:59:11;13.20;;;4.00;;
71496;SDS011;59317;53.218;5.730;2022-10-22T10:01:38;15.65;;;4.20;;
71496;SDS011;59317;53.218;5.730;2022-10-22T10:04:12;15.00;;;4.15;;
71496;SDS011;59317;53.218;5.730;2022-10-22T10:06:39;14.38;;;4.47;;
71496;SDS011;59317;53.218;5.730;2022-10-22T10:09:13;13.57;;;4.00;;
71496;SDS011;59317;53.218;5.730;2022-10-22T10:11:44;13.30;;;4.25;;
71496;SDS011;59317;53.218;5.730;2022-10-22T10:14:20;11.82;;;3.95;;
71496;SDS011;59317;53.218;5.730;2022-10-22T10:19:31;11.47;;;3.93;;
71496;SDS011;59317;53.218;5.730;2022-10-22T10:22:09;11.45;;;3.50;;
71496;SDS011;59317;53.218;5.730;2022-10-22T10:30:10;11.35;;;3.28;;
71496;SDS011;59317;53.218;5.730;2022-10-22T10:32:46;11.07;;;3.33;;
71496;SDS011;59317;53.218;5.730;2022-10-22T10:38:05;9.43;;;4.22;;
71496;SDS011;59317;53.218;5.730;2022-10-22T10:40:39;12.10;;;4.90;;
71496;SDS011;59317;53.218;5.730;2022-10-22T10:43:20;13.27;;;4.85;;
71496;SDS011;59317;53.218;5.730;2022-10-22T10:48:25;13.25;;;5.20;;
71496;SDS011;59317;53.218;5.730;2022-10-22T10:51:43;13.27;;;5.88;;
71496;SDS011;59317;53.218;5.730;2022-10-22T10:56:36;13.40;;;5.57;;
71496;SDS011;59317;53.218;5.730;2022-10-22T11:07:07;15.25;;;6.10;;
71496;SDS011;59317;53.218;5.730;2022-10-22T11:09:56;16.20;;;5.93;;
71496;SDS011;59317;53.218;5.730;2022-10-22T11:12:22;16.00;;;6.28;;
71496;SDS011;59317;53.218;5.730;2022-10-22T11:15:08;11.40;;;5.18;;
71496;SDS011;59317;53.218;5.730;2022-10-22T11:17:39;13.48;;;5.72;;
71496;SDS011;59317;53.218;5.730;2022-10-22T11:20:15;14.25;;;5.18;;
71496;SDS011;59317;53.218;5.730;2022-10-22T11:22:47;10.40;;;4.03;;
71496;SDS011;59317;53.218;5.730;2022-10-22T11:27:41;10.98;;;3.58;;
71496;SDS011;59317;53.218;5.730;2022-10-22T11:30:13;11.45;;;3.50;;
71496;SDS011;59317;53.218;5.730;2022-10-22T11:32:44;11.55;;;3.50;;
71496;SDS011;59317;53.218;5.730;2022-10-22T11:35:12;13.05;;;4.22;;
71496;SDS011;59317;53.218;5.730;2022-10-22T11:37:39;15.23;;;4.37;;
71496;SDS011;59317;53.218;5.730;2022-10-22T11:40:07;15.77;;;4.43;;
71496;SDS011;59317;53.218;5.730;2022-10-22T11:42:40;17.90;;;5.45;;
71496;SDS011;59317;53.218;5.730;2022-10-22T11:47:51;13.25;;;3.60;;
71496;SDS011;59317;53.218;5.730;2022-10-22T11:55:32;11.75;;;3.50;;
71496;SDS011;59317;53.218;5.730;2022-10-22T11:58:00;12.43;;;3.00;;
71496;SDS011;59317;53.218;5.730;2022-10-22T12:00:39;11.32;;;3.50;;
71496;SDS011;59317;53.218;5.730;2022-10-22T12:03:22;14.07;;;3.23;;
71496;SDS011;59317;53.218;5.730;2022-10-22T12:06:50;11.97;;;3.70;;
71496;SDS011;59317;53.218;5.730;2022-10-22T12:08:42;10.87;;;3.10;;
71496;SDS011;59317;53.218;5.730;2022-10-22T12:16:36;11.00;;;2.40;;
71496;SDS011;59317;53.218;5.730;2022-10-22T12:19:12;11.25;;;1.95;;
71496;SDS011;59317;53.218;5.730;2022-10-22T12:21:40;9.27;;;1.53;;
71496;SDS011;59317;53.218;5.730;2022-10-22T12:24:06;10.25;;;1.58;;
71496;SDS011;59317;53.218;5.730;2022-10-22T12:26:36;8.40;;;1.20;;
71496;SDS011;59317;53.218;5.730;2022-10-22T12:29:08;11.05;;;1.52;;
71496;SDS011;59317;53.218;5.730;2022-10-22T12:31:35;11.07;;;1.45;;
71496;SDS011;59317;53.218;5.730;2022-10-22T12:34:01;10.85;;;1.20;;
71496;SDS011;59317;53.218;5.730;2022-10-22T12:36:32;10.52;;;1.10;;
71496;SDS011;59317;53.218;5.730;2022-10-22T12:38:58;9.73;;;0.90;;
71496;SDS011;59317;53.218;5.730;2022-10-22T12:41:31;10.20;;;1.30;;
71496;SDS011;59317;53.218;5.730;2022-10-22T12:44:01;7.85;;;1.10;;
71496;SDS011;59317;53.218;5.730;2022-10-22T12:46:28;9.48;;;1.20;;
71496;SDS011;59317;53.218;5.730;2022-10-22T12:48:57;12.32;;;1.50;;
71496;SDS011;59317;53.218;5.730;2022-10-22T12:51:24;8.52;;;1.10;;
71496;SDS011;59317;53.218;5.730;2022-10-22T12:53:51;8.23;;;1.00;;
71496;SDS011;59317;53.218;5.730;2022-10-22T12:56:38;10.82;;;1.20;;
71496;SDS011;59317;53.218;5.730;2022-10-22T12:59:05;9.18;;;0.90;;
71496;SDS011;59317;53.218;5.730;2022-10-22T13:01:37;8.77;;;0.93;;
71496;SDS011;59317;53.218;5.730;2022-10-22T13:06:51;8.05;;;0.80;;
71496;SDS011;59317;53.218;5.730;2022-10-22T13:09:35;8.90;;;1.05;;
71496;SDS011;59317;53.218;5.730;2022-10-22T13:12:03;10.80;;;1.17;;
71496;SDS011;59317;53.218;5.730;2022-10-22T13:14:30;6.38;;;0.80;;
71496;SDS011;59317;53.218;5.730;2022-10-22T13:19:43;8.18;;;0.75;;
71496;SDS011;59317;53.218;5.730;2022-10-22T13:22:25;9.20;;;0.88;;
71496;SDS011;59317;53.218;5.730;2022-10-22T13:24:52;6.82;;;0.68;;
71496;SDS011;59317;53.218;5.730;2022-10-22T13:27:20;6.15;;;0.73;;
71496;SDS011;59317;53.218;5.730;2022-10-22T13:29:46;7.32;;;0.70;;
71496;SDS011;59317;53.218;5.730;2022-10-22T13:34:47;6.85;;;0.75;;
71496;SDS011;59317;53.218;5.730;2022-10-22T13:37:13;7.20;;;0.60;;
71496;SDS011;59317;53.218;5.730;2022-10-22T13:39:39;4.78;;;0.60;;
71496;SDS011;59317;53.218;5.730;2022-10-22T13:42:10;7.75;;;0.63;;
71496;SDS011;59317;53.218;5.730;2022-10-22T13:44:36;5.28;;;0.45;;
71496;SDS011;59317;53.218;5.730;2022-10-22T13:47:02;5.18;;;0.57;;
71496;SDS011;59317;53.218;5.730;2022-10-22T13:49:28;6.30;;;0.60;;
71496;SDS011;59317;53.218;5.730;2022-10-22T13:51:54;6.05;;;0.60;;
71496;SDS011;59317;53.218;5.730;2022-10-22T13:54:20;6.38;;;0.70;;
71496;SDS011;59317;53.218;5.730;2022-10-22T13:56:47;8.18;;;0.80;;
71496;SDS011;59317;53.218;5.730;2022-10-22T13:59:13;6.22;;;0.65;;
71496;SDS011;59317;53.218;5.730;2022-10-22T14:01:39;7.82;;;0.90;;
71496;SDS011;59317;53.218;5.730;2022-10-22T14:04:06;8.05;;;0.95;;
71496;SDS011;59317;53.218;5.730;2022-10-22T14:06:33;6.50;;;0.68;;
71496;SDS011;59317;53.218;5.730;2022-10-22T14:09:01;7.67;;;0.80;;
71496;SDS011;59317;53.218;5.730;2022-10-22T14:11:27;6.00;;;0.73;;
71496;SDS011;59317;53.218;5.730;2022-10-22T14:13:55;7.95;;;0.75;;
71496;SDS011;59317;53.218;5.730;2022-10-22T14:16:27;6.95;;;0.73;;
71496;SDS011;59317;53.218;5.730;2022-10-22T14:18:55;7.38;;;0.75;;
71496;SDS011;59317;53.218;5.730;2022-10-22T14:21:21;11.30;;;1.02;;
71496;SDS011;59317;53.218;5.730;2022-10-22T14:23:47;8.20;;;0.90;;
71496;SDS011;59317;53.218;5.730;2022-10-22T14:26:20;8.88;;;0.90;;
71496;SDS011;59317;53.218;5.730;2022-10-22T14:28:47;12.02;;;1.52;;
71496;SDS011;59317;53.218;5.730;2022-10-22T14:31:13;9.32;;;1.10;;
71496;SDS011;59317;53.218;5.730;2022-10-22T14:33:39;13.40;;;1.60;;
71496;SDS011;59317;53.218;5.730;2022-10-22T14:36:05;11.80;;;1.23;;
71496;SDS011;59317;53.218;5.730;2022-10-22T14:38:31;13.00;;;1.50;;
71496;SDS011;59317;53.218;5.730;2022-10-22T14:40:58;12.57;;;1.65;;
71496;SDS011;59317;53.218;5.730;2022-10-22T14:43:26;12.35;;;1.50;;
71496;SDS011;59317;53.218;5.730;2022-10-22T14:45:53;10.77;;;1.40;;
71496;SDS011;59317;53.218;5.730;2022-10-22T14:48:19;13.15;;;1.85;;
71496;SDS011;59317;53.218;5.730;2022-10-22T14:50:45;15.13;;;1.67;;
71496;SDS011;59317;53.218;5.730;2022-10-22T14:53:12;12.48;;;1.58;;
71496;SDS011;59317;53.218;5.730;2022-10-22T14:55:41;15.98;;;1.63;;
71496;SDS011;59317;53.218;5.730;2022-10-22T14:58:08;13.88;;;1.30;;
71496;SDS011;59317;53.218;5.730;2022-10-22T15:00:34;13.88;;;1.48;;
71496;SDS011;59317;53.218;5.730;2022-10-22T15:03:01;18.40;;;1.63;;
71496;SDS011;59317;53.218;5.730;2022-10-22T15:05:27;16.55;;;1.83;;
71496;SDS011;59317;53.218;5.730;2022-10-22T15:07:53;15.27;;;1.60;;
71496;SDS011;59317;53.218;5.730;2022-10-22T15:10:19;12.68;;;1.10;;
71496;SDS011;59317;53.218;5.730;2022-10-22T15:12:45;13.55;;;1.60;;
71496;SDS011;59317;53.218;5.730;2022-10-22T15:15:11;14.80;;;1.67;;
71496;SDS011;59317;53.218;5.730;2022-10-22T15:17:37;15.38;;;1.85;;
71496;SDS011;59317;53.218;5.730;2022-10-22T15:20:04;14.52;;;1.80;;
71496;SDS011;59317;53.218;5.730;2022-10-22T15:22:30;14.67;;;1.57;;
71496;SDS011;59317;53.218;5.730;2022-10-22T15:24:59;10.40;;;1.48;;
71496;SDS011;59317;53.218;5.730;2022-10-22T15:27:25;14.20;;;1.70;;
71496;SDS011;59317;53.218;5.730;2022-10-22T15:29:51;17.50;;;1.80;;
71496;SDS011;59317;53.218;5.730;2022-10-22T15:32:17;16.70;;;1.83;;
71496;SDS011;59317;53.218;5.730;2022-10-22T15:34:43;15.73;;;2.00;;
71496;SDS011;59317;53.218;5.730;2022-10-22T15:37:10;15.27;;;2.42;;
71496;SDS011;59317;53.218;5.730;2022-10-22T15:39:40;16.95;;;2.20;;
71496;SDS011;59317;53.218;5.730;2022-10-22T15:42:07;14.63;;;1.80;;
71496;SDS011;59317;53.218;5.730;2022-10-22T15:44:33;14.32;;;1.95;;
71496;SDS011;59317;53.218;5.730;2022-10-22T15:47:01;14.70;;;2.20;;
71496;SDS011;59317;53.218;5.730;2022-10-22T15:49:27;20.77;;;2.10;;
71496;SDS011;59317;53.218;5.730;2022-10-22T15:51:53;19.77;;;2.10;;
71496;SDS011;59317;53.218;5.730;2022-10-22T15:54:23;16.23;;;2.03;;
71496;SDS011;59317;53.218;5.730;2022-10-22T15:56:50;22.08;;;2.15;;
71496;SDS011;59317;53.218;5.730;2022-10-22T15:59:16;16.25;;;1.95;;
71496;SDS011;59317;53.218;5.730;2022-10-22T16:01:42;21.60;;;1.80;;
71496;SDS011;59317;53.218;5.730;2022-10-22T16:04:09;16.83;;;1.70;;